sensor_id;sensor_type;location;lat;lon;timestamp;temperature;humidity
53286;DHT22;39171;45.550;12.074;2022-12-24T00:01:35;16.80;61.00
53286;DHT22;39171;45.550;12.074;2022-12-24T00:07:36;16.80;61.00
53286;DHT22;39171;45.550;12.074;2022-12-24T00:13:37;16.70;61.10
53286;DHT22;39171;45.550;12.074;2022-12-24T00:19:38;16.70;61.10
53286;DHT22;39171;45.550;12.074;2022-12-24T00:25:40;16.70;61.20
53286;DHT22;39171;45.550;12.074;2022-12-24T00:31:41;16.70;61.40
53286;DHT22;39171;45.550;12.074;2022-12-24T00:37:42;16.70;61.40
53286;DHT22;39171;45.550;12.074;2022-12-24T00:43:46;16.70;61.50
53286;DHT22;39171;45.550;12.074;2022-12-24T00:49:47;16.70;61.50
53286;DHT22;39171;45.550;12.074;2022-12-24T00:55:48;16.70;61.60
53286;DHT22;39171;45.550;12.074;2022-12-24T01:01:50;16.60;61.80
53286;DHT22;39171;45.550;12.074;2022-12-24T01:07:51;16.60;61.80
53286;DHT22;39171;45.550;12.074;2022-12-24T01:13:54;16.60;61.80
53286;DHT22;39171;45.550;12.074;2022-12-24T01:19:55;16.50;61.80
53286;DHT22;39171;45.550;12.074;2022-12-24T01:26:01;16.50;61.90
53286;DHT22;39171;45.550;12.074;2022-12-24T01:32:03;16.50;61.90
53286;DHT22;39171;45.550;12.074;2022-12-24T01:38:04;16.50;62.10
53286;DHT22;39171;45.550;12.074;2022-12-24T01:50:22;16.40;62.50
53286;DHT22;39171;45.550;12.074;2022-12-24T01:56:23;16.40;62.50
53286;DHT22;39171;45.550;12.074;2022-12-24T02:02:25;16.40;62.50
53286;DHT22;39171;45.550;12.074;2022-12-24T02:08:26;16.40;62.70
53286;DHT22;39171;45.550;12.074;2022-12-24T02:14:39;16.30;62.70
53286;DHT22;39171;45.550;12.074;2022-12-24T02:20:45;16.30;62.80
53286;DHT22;39171;45.550;12.074;2022-12-24T02:39:01;16.30;62.90
53286;DHT22;39171;45.550;12.074;2022-12-24T02:45:06;16.20;63.00
53286;DHT22;39171;45.550;12.074;2022-12-24T02:51:09;16.20;63.00
53286;DHT22;39171;45.550;12.074;2022-12-24T02:57:18;16.20;63.00
53286;DHT22;39171;45.550;12.074;2022-12-24T03:09:26;16.20;63.10
53286;DHT22;39171;45.550;12.074;2022-12-24T03:15:30;16.20;63.10
53286;DHT22;39171;45.550;12.074;2022-12-24T03:21:33;16.10;63.20
53286;DHT22;39171;45.550;12.074;2022-12-24T03:27:35;16.10;63.20
53286;DHT22;39171;45.550;12.074;2022-12-24T03:33:38;16.10;63.20
53286;DHT22;39171;45.550;12.074;2022-12-24T03:39:39;16.10;63.30
53286;DHT22;39171;45.550;12.074;2022-12-24T03:45:40;16.00;63.30
53286;DHT22;39171;45.550;12.074;2022-12-24T03:51:42;16.00;63.60
53286;DHT22;39171;45.550;12.074;2022-12-24T03:57:43;16.00;63.60
53286;DHT22;39171;45.550;12.074;2022-12-24T04:03:44;16.00;63.60
53286;DHT22;39171;45.550;12.074;2022-12-24T04:09:45;16.00;63.90
53286;DHT22;39171;45.550;12.074;2022-12-24T04:15:59;16.00;63.80
53286;DHT22;39171;45.550;12.074;2022-12-24T04:22:01;16.00;64.50
53286;DHT22;39171;45.550;12.074;2022-12-24T04:28:02;16.00;64.50
53286;DHT22;39171;45.550;12.074;2022-12-24T04:34:03;16.20;64.10
53286;DHT22;39171;45.550;12.074;2022-12-24T04:40:05;16.40;63.50
53286;DHT22;39171;45.550;12.074;2022-12-24T04:46:08;16.60;62.90
53286;DHT22;39171;45.550;12.074;2022-12-24T04:52:09;16.90;62.60
53286;DHT22;39171;45.550;12.074;2022-12-24T04:58:11;17.10;62.20
53286;DHT22;39171;45.550;12.074;2022-12-24T05:04:16;17.30;61.90
53286;DHT22;39171;45.550;12.074;2022-12-24T05:10:17;17.40;61.50
53286;DHT22;39171;45.550;12.074;2022-12-24T05:16:19;17.60;61.10
53286;DHT22;39171;45.550;12.074;2022-12-24T05:22:20;17.70;60.80
53286;DHT22;39171;45.550;12.074;2022-12-24T05:28:39;17.80;60.30
53286;DHT22;39171;45.550;12.074;2022-12-24T05:34:41;17.80;60.00
53286;DHT22;39171;45.550;12.074;2022-12-24T05:40:42;17.90;59.80
53286;DHT22;39171;45.550;12.074;2022-12-24T05:46:43;18.00;59.70
53286;DHT22;39171;45.550;12.074;2022-12-24T05:52:44;18.10;59.60
53286;DHT22;39171;45.550;12.074;2022-12-24T05:58:45;18.20;59.30
53286;DHT22;39171;45.550;12.074;2022-12-24T06:04:46;18.20;59.20
53286;DHT22;39171;45.550;12.074;2022-12-24T06:10:52;18.20;59.10
53286;DHT22;39171;45.550;12.074;2022-12-24T06:16:53;18.30;58.80
53286;DHT22;39171;45.550;12.074;2022-12-24T06:22:55;18.30;58.70
53286;DHT22;39171;45.550;12.074;2022-12-24T06:28:56;18.40;58.70
53286;DHT22;39171;45.550;12.074;2022-12-24T06:34:57;18.40;58.40
53286;DHT22;39171;45.550;12.074;2022-12-24T06:40:58;18.40;58.30
53286;DHT22;39171;45.550;12.074;2022-12-24T06:47:00;18.50;58.00
53286;DHT22;39171;45.550;12.074;2022-12-24T06:53:01;18.50;58.00
53286;DHT22;39171;45.550;12.074;2022-12-24T06:59:02;18.60;57.80
53286;DHT22;39171;45.550;12.074;2022-12-24T07:05:04;18.60;57.70
53286;DHT22;39171;45.550;12.074;2022-12-24T07:11:05;18.60;57.60
53286;DHT22;39171;45.550;12.074;2022-12-24T07:17:06;18.70;57.40
53286;DHT22;39171;45.550;12.074;2022-12-24T07:23:07;18.70;57.60
53286;DHT22;39171;45.550;12.074;2022-12-24T07:29:08;18.70;57.40
53286;DHT22;39171;45.550;12.074;2022-12-24T07:35:09;18.70;57.20
53286;DHT22;39171;45.550;12.074;2022-12-24T07:41:11;18.80;57.00
53286;DHT22;39171;45.550;12.074;2022-12-24T07:47:12;18.80;56.90
53286;DHT22;39171;45.550;12.074;2022-12-24T07:53:13;18.80;56.60
53286;DHT22;39171;45.550;12.074;2022-12-24T07:59:14;18.90;56.90
53286;DHT22;39171;45.550;12.074;2022-12-24T08:05:15;18.90;56.80
53286;DHT22;39171;45.550;12.074;2022-12-24T08:11:16;19.00;56.80
53286;DHT22;39171;45.550;12.074;2022-12-24T08:17:18;19.00;56.50
53286;DHT22;39171;45.550;12.074;2022-12-24T08:23:19;19.00;56.50
53286;DHT22;39171;45.550;12.074;2022-12-24T08:29:20;19.10;56.30
53286;DHT22;39171;45.550;12.074;2022-12-24T08:35:21;19.00;56.40
53286;DHT22;39171;45.550;12.074;2022-12-24T08:41:22;19.10;56.30
53286;DHT22;39171;45.550;12.074;2022-12-24T08:47:23;19.20;56.30
53286;DHT22;39171;45.550;12.074;2022-12-24T08:53:25;19.20;56.10
53286;DHT22;39171;45.550;12.074;2022-12-24T08:59:26;19.20;56.00
53286;DHT22;39171;45.550;12.074;2022-12-24T09:05:27;19.20;56.00
53286;DHT22;39171;45.550;12.074;2022-12-24T09:11:29;19.20;56.10
53286;DHT22;39171;45.550;12.074;2022-12-24T09:17:30;19.30;56.00
53286;DHT22;39171;45.550;12.074;2022-12-24T09:23:31;19.30;56.00
53286;DHT22;39171;45.550;12.074;2022-12-24T09:29:34;19.30;55.90
53286;DHT22;39171;45.550;12.074;2022-12-24T09:35:40;19.30;55.60
53286;DHT22;39171;45.550;12.074;2022-12-24T09:47:52;19.30;55.70
53286;DHT22;39171;45.550;12.074;2022-12-24T09:53:55;19.30;55.70
53286;DHT22;39171;45.550;12.074;2022-12-24T09:59:57;19.20;55.70
53286;DHT22;39171;45.550;12.074;2022-12-24T10:12:20;19.10;56.20
53286;DHT22;39171;45.550;12.074;2022-12-24T10:24:25;18.80;56.30
53286;DHT22;39171;45.550;12.074;2022-12-24T10:30:27;18.80;56.40
53286;DHT22;39171;45.550;12.074;2022-12-24T10:36:30;18.80;56.30
53286;DHT22;39171;45.550;12.074;2022-12-24T10:42:38;18.80;56.20
53286;DHT22;39171;45.550;12.074;2022-12-24T10:48:44;18.90;56.40
53286;DHT22;39171;45.550;12.074;2022-12-24T11:01:06;19.00;56.20
53286;DHT22;39171;45.550;12.074;2022-12-24T11:07:09;19.10;56.10
53286;DHT22;39171;45.550;12.074;2022-12-24T11:13:37;19.20;56.10
53286;DHT22;39171;45.550;12.074;2022-12-24T11:19:39;19.20;55.90
53286;DHT22;39171;45.550;12.074;2022-12-24T11:25:41;19.30;55.70
53286;DHT22;39171;45.550;12.074;2022-12-24T11:31:47;19.40;55.60
53286;DHT22;39171;45.550;12.074;2022-12-24T11:38:07;19.50;55.30
53286;DHT22;39171;45.550;12.074;2022-12-24T11:44:09;19.50;55.50
53286;DHT22;39171;45.550;12.074;2022-12-24T11:50:25;19.50;55.20
53286;DHT22;39171;45.550;12.074;2022-12-24T12:02:41;19.50;55.00
53286;DHT22;39171;45.550;12.074;2022-12-24T12:08:43;19.40;55.10
53286;DHT22;39171;45.550;12.074;2022-12-24T12:15:04;19.50;55.30
53286;DHT22;39171;45.550;12.074;2022-12-24T12:21:10;19.40;55.40
53286;DHT22;39171;45.550;12.074;2022-12-24T12:27:23;19.40;55.40
53286;DHT22;39171;45.550;12.074;2022-12-24T12:33:30;19.30;55.40
53286;DHT22;39171;45.550;12.074;2022-12-24T12:39:32;19.40;55.40
53286;DHT22;39171;45.550;12.074;2022-12-24T12:51:48;19.30;55.60
53286;DHT22;39171;45.550;12.074;2022-12-24T12:57:53;19.20;55.60
53286;DHT22;39171;45.550;12.074;2022-12-24T13:04:04;19.20;55.70
53286;DHT22;39171;45.550;12.074;2022-12-24T13:22:33;19.10;55.90
53286;DHT22;39171;45.550;12.074;2022-12-24T13:28:35;19.10;56.10
53286;DHT22;39171;45.550;12.074;2022-12-24T13:34:37;19.10;56.10
53286;DHT22;39171;45.550;12.074;2022-12-24T13:40:38;19.10;56.10
53286;DHT22;39171;45.550;12.074;2022-12-24T13:53:03;19.00;56.60
53286;DHT22;39171;45.550;12.074;2022-12-24T13:59:09;19.00;56.50
53286;DHT22;39171;45.550;12.074;2022-12-24T14:18:05;18.90;57.00
53286;DHT22;39171;45.550;12.074;2022-12-24T14:24:11;18.80;56.90
53286;DHT22;39171;45.550;12.074;2022-12-24T14:36:17;18.80;57.00
53286;DHT22;39171;45.550;12.074;2022-12-24T14:48:34;18.70;57.10
53286;DHT22;39171;45.550;12.074;2022-12-24T14:54:39;18.70;57.20
53286;DHT22;39171;45.550;12.074;2022-12-24T15:00:42;18.70;57.30
53286;DHT22;39171;45.550;12.074;2022-12-24T15:06:45;18.60;57.30
53286;DHT22;39171;45.550;12.074;2022-12-24T15:12:50;18.60;57.50
53286;DHT22;39171;45.550;12.074;2022-12-24T15:18:52;18.50;57.60
53286;DHT22;39171;45.550;12.074;2022-12-24T15:32:16;18.50;57.80
53286;DHT22;39171;45.550;12.074;2022-12-24T15:38:35;18.40;58.00
53286;DHT22;39171;45.550;12.074;2022-12-24T15:44:38;18.40;58.10
53286;DHT22;39171;45.550;12.074;2022-12-24T15:50:44;18.40;58.10
53286;DHT22;39171;45.550;12.074;2022-12-24T15:56:45;18.30;58.20
53286;DHT22;39171;45.550;12.074;2022-12-24T16:02:48;18.20;58.30
53286;DHT22;39171;45.550;12.074;2022-12-24T16:08:49;18.20;58.40
53286;DHT22;39171;45.550;12.074;2022-12-24T16:15:03;18.20;58.40
53286;DHT22;39171;45.550;12.074;2022-12-24T16:21:30;18.20;58.50
53286;DHT22;39171;45.550;12.074;2022-12-24T16:27:31;18.10;58.60
53286;DHT22;39171;45.550;12.074;2022-12-24T16:33:32;18.10;58.70
53286;DHT22;39171;45.550;12.074;2022-12-24T16:39:34;18.00;58.80
53286;DHT22;39171;45.550;12.074;2022-12-24T16:45:35;18.00;58.90
53286;DHT22;39171;45.550;12.074;2022-12-24T16:51:37;18.00;59.10
53286;DHT22;39171;45.550;12.074;2022-12-24T16:57:38;18.00;59.20
53286;DHT22;39171;45.550;12.074;2022-12-24T17:03:39;17.90;59.30
53286;DHT22;39171;45.550;12.074;2022-12-24T17:09:41;17.90;59.30
53286;DHT22;39171;45.550;12.074;2022-12-24T17:15:42;17.90;59.40
53286;DHT22;39171;45.550;12.074;2022-12-24T17:21:48;17.90;59.40
53286;DHT22;39171;45.550;12.074;2022-12-24T17:27:50;17.80;59.60
53286;DHT22;39171;45.550;12.074;2022-12-24T17:33:53;17.80;59.70
53286;DHT22;39171;45.550;12.074;2022-12-24T17:39:54;17.80;59.90
53286;DHT22;39171;45.550;12.074;2022-12-24T17:45:56;17.80;60.00
53286;DHT22;39171;45.550;12.074;2022-12-24T17:51:57;17.80;60.00
53286;DHT22;39171;45.550;12.074;2022-12-24T17:57:58;17.70;60.10
53286;DHT22;39171;45.550;12.074;2022-12-24T18:04:00;17.70;60.10
53286;DHT22;39171;45.550;12.074;2022-12-24T18:10:02;17.70;60.20
53286;DHT22;39171;45.550;12.074;2022-12-24T18:16:18;17.60;60.10
53286;DHT22;39171;45.550;12.074;2022-12-24T18:22:20;17.60;60.20
53286;DHT22;39171;45.550;12.074;2022-12-24T18:28:21;17.50;60.30
53286;DHT22;39171;45.550;12.074;2022-12-24T18:34:22;17.50;60.30
53286;DHT22;39171;45.550;12.074;2022-12-24T18:40:23;17.50;60.50
53286;DHT22;39171;45.550;12.074;2022-12-24T18:46:26;17.50;60.50
53286;DHT22;39171;45.550;12.074;2022-12-24T18:52:27;17.50;60.50
53286;DHT22;39171;45.550;12.074;2022-12-24T18:58:32;17.50;60.60
53286;DHT22;39171;45.550;12.074;2022-12-24T19:04:33;17.40;60.70
53286;DHT22;39171;45.550;12.074;2022-12-24T19:10:35;17.40;60.80
53286;DHT22;39171;45.550;12.074;2022-12-24T19:16:36;17.40;61.10
53286;DHT22;39171;45.550;12.074;2022-12-24T19:22:38;17.30;61.00
53286;DHT22;39171;45.550;12.074;2022-12-24T19:28:39;17.30;61.10
53286;DHT22;39171;45.550;12.074;2022-12-24T19:34:41;17.30;61.10
53286;DHT22;39171;45.550;12.074;2022-12-24T19:40:42;17.30;61.20
53286;DHT22;39171;45.550;12.074;2022-12-24T19:46:45;17.30;61.20
53286;DHT22;39171;45.550;12.074;2022-12-24T19:52:46;17.30;61.30
53286;DHT22;39171;45.550;12.074;2022-12-24T19:58:48;17.20;61.30
53286;DHT22;39171;45.550;12.074;2022-12-24T20:04:49;17.20;61.40
53286;DHT22;39171;45.550;12.074;2022-12-24T20:10:50;17.20;61.20
53286;DHT22;39171;45.550;12.074;2022-12-24T20:16:51;17.20;61.30
53286;DHT22;39171;45.550;12.074;2022-12-24T20:22:53;17.20;61.60
53286;DHT22;39171;45.550;12.074;2022-12-24T20:28:56;17.20;61.50
53286;DHT22;39171;45.550;12.074;2022-12-24T20:35:04;17.10;61.40
53286;DHT22;39171;45.550;12.074;2022-12-24T20:41:40;17.10;61.60
53286;DHT22;39171;45.550;12.074;2022-12-24T20:47:41;17.10;61.70
53286;DHT22;39171;45.550;12.074;2022-12-24T20:53:43;17.00;61.80
53286;DHT22;39171;45.550;12.074;2022-12-24T20:59:46;17.00;61.90
53286;DHT22;39171;45.550;12.074;2022-12-24T21:05:47;17.00;62.00
53286;DHT22;39171;45.550;12.074;2022-12-24T21:11:48;17.00;62.20
53286;DHT22;39171;45.550;12.074;2022-12-24T21:17:49;17.00;62.20
53286;DHT22;39171;45.550;12.074;2022-12-24T21:23:51;17.00;62.20
53286;DHT22;39171;45.550;12.074;2022-12-24T21:29:52;16.90;62.30
53286;DHT22;39171;45.550;12.074;2022-12-24T21:35:57;16.90;62.50
53286;DHT22;39171;45.550;12.074;2022-12-24T21:41:59;16.90;62.50
53286;DHT22;39171;45.550;12.074;2022-12-24T21:48:01;16.90;62.70
53286;DHT22;39171;45.550;12.074;2022-12-24T21:54:23;16.90;62.80
53286;DHT22;39171;45.550;12.074;2022-12-24T22:00:26;16.80;62.70
53286;DHT22;39171;45.550;12.074;2022-12-24T22:06:30;16.80;62.90
53286;DHT22;39171;45.550;12.074;2022-12-24T22:12:50;16.80;63.00
53286;DHT22;39171;45.550;12.074;2022-12-24T22:18:51;16.80;63.00
53286;DHT22;39171;45.550;12.074;2022-12-24T22:24:52;16.80;63.30
53286;DHT22;39171;45.550;12.074;2022-12-24T22:30:54;16.70;63.40
53286;DHT22;39171;45.550;12.074;2022-12-24T22:36:55;16.70;63.30
53286;DHT22;39171;45.550;12.074;2022-12-24T22:42:57;16.70;63.30
53286;DHT22;39171;45.550;12.074;2022-12-24T22:48:59;16.70;63.40
53286;DHT22;39171;45.550;12.074;2022-12-24T22:55:00;16.70;63.30
53286;DHT22;39171;45.550;12.074;2022-12-24T23:01:01;16.70;63.30
53286;DHT22;39171;45.550;12.074;2022-12-24T23:07:03;16.60;63.30
53286;DHT22;39171;45.550;12.074;2022-12-24T23:13:05;16.60;63.50
53286;DHT22;39171;45.550;12.074;2022-12-24T23:19:25;16.60;63.60
53286;DHT22;39171;45.550;12.074;2022-12-24T23:25:29;16.60;63.80
53286;DHT22;39171;45.550;12.074;2022-12-24T23:31:30;16.50;63.80
53286;DHT22;39171;45.550;12.074;2022-12-24T23:37:37;16.50;63.70
53286;DHT22;39171;45.550;12.074;2022-12-24T23:43:38;16.50;63.60
53286;DHT22;39171;45.550;12.074;2022-12-24T23:49:39;16.50;63.50
53286;DHT22;39171;45.550;12.074;2022-12-24T23:55:40;16.50;63.40
